createdAt,value
2023-11-14T00:00:38.564Z,100052.75
2023-11-14T00:03:06.834Z,100050.53
2023-11-14T00:05:37.967Z,100055.50
2023-11-14T00:08:05.260Z,100044.09
2023-11-14T00:10:31.778Z,100069.59
2023-11-14T00:12:58.365Z,100066.53
2023-11-14T00:15:27.564Z,100063.41
2023-11-14T00:17:54.335Z,100068.75
2023-11-14T00:20:20.920Z,100085.19
2023-11-14T00:22:47.465Z,100076.81
2023-11-14T00:25:13.952Z,100076.81
2023-11-14T00:27:41.069Z,100081.06
2023-11-14T00:30:08.700Z,100078.03
2023-11-14T00:32:35.191Z,100082.59
2023-11-14T00:35:01.873Z,100076.91
2023-11-14T00:37:29.851Z,100086.81
2023-11-14T00:39:56.420Z,100096.59
2023-11-14T00:42:22.947Z,100085.50
2023-11-14T00:44:50.109Z,100084.41
2023-11-14T00:47:16.665Z,100081.75
2023-11-14T00:49:43.147Z,100086.94
2023-11-14T00:52:09.576Z,100087.28
2023-11-14T00:54:35.999Z,100084.28
2023-11-14T00:57:02.429Z,100097.59
2023-11-14T00:59:29.487Z,100079.41
2023-11-14T01:01:59.574Z,100090.38
2023-11-14T01:04:27.038Z,100086.94
2023-11-14T01:06:53.422Z,100091.50
2023-11-14T01:09:19.965Z,100101.38
2023-11-14T01:11:47.873Z,100087.72
2023-11-14T01:14:14.361Z,100096.16
2023-11-14T01:16:40.792Z,100095.06
2023-11-14T01:19:07.261Z,100108.03
2023-11-14T01:21:33.692Z,100108.78
2023-11-14T01:24:00.115Z,100107.69
2023-11-14T01:26:33.155Z,100109.56
2023-11-14T01:28:59.674Z,100115.25
2023-11-14T01:31:26.116Z,100127.03
2023-11-14T01:33:52.578Z,100122.13
2023-11-14T01:36:18.997Z,100129.69
2023-11-14T01:38:45.899Z,100123.16
2023-11-14T01:41:13.330Z,100134.13
2023-11-14T01:43:46.870Z,100128.03
2023-11-14T01:46:17.039Z,100132.47
2023-11-14T01:48:47.516Z,100117.31
2023-11-14T01:51:14.946Z,100124.94
2023-11-14T01:53:41.784Z,100128.72
2023-11-14T01:56:10.963Z,100131.81
2023-11-14T01:58:37.772Z,100131.03
2023-11-14T02:01:04.970Z,100121.06
2023-11-14T02:03:34.026Z,100125.63
2023-11-14T02:06:00.643Z,100130.88
2023-11-14T02:08:27.236Z,100153.63
2023-11-14T02:10:53.662Z,100148.66
2023-11-14T02:13:20.175Z,100151.06
2023-11-14T02:15:46.655Z,100154.50
2023-11-14T02:18:17.533Z,100170.47
2023-11-14T02:20:44.054Z,100157.59
2023-11-14T02:23:12.300Z,100166.78
2023-11-14T02:25:38.802Z,100152.34
2023-11-14T02:28:05.181Z,100161.47
2023-11-14T02:30:32.175Z,100165.66
2023-11-14T02:32:58.648Z,100177.44
2023-11-14T02:35:25.259Z,100175.56
2023-11-14T02:37:51.900Z,100173.66
2023-11-14T02:40:18.488Z,100177.44
2023-11-14T02:42:45.155Z,100167.22
2023-11-14T02:45:12.060Z,100181.66
2023-11-14T02:47:39.027Z,100190.41
2023-11-14T02:50:19.354Z,100196.94
2023-11-14T02:52:45.910Z,100188.19
2023-11-14T02:55:12.301Z,100188.19
2023-11-14T02:57:38.688Z,100192.06
2023-11-14T03:00:05.922Z,100193.94
2023-11-14T03:02:32.345Z,100204.28
2023-11-14T03:04:58.914Z,100196.28
2023-11-14T03:07:25.350Z,100201.16
2023-11-14T03:09:51.751Z,100196.50
2023-11-14T03:12:18.398Z,100201.06
2023-11-14T03:14:44.950Z,100211.81
2023-11-14T03:17:11.587Z,100197.38
2023-11-14T03:19:44.259Z,100213.28
2023-11-14T03:22:11.962Z,100206.75
2023-11-14T03:24:40.248Z,100215.50
2023-11-14T03:27:07.014Z,100221.97
2023-11-14T03:29:33.477Z,100213.19
2023-11-14T03:32:00.475Z,100215.00
2023-11-14T03:34:27.208Z,100217.56
2023-11-14T03:36:54.383Z,100217.91
2023-11-14T03:39:21.585Z,100212.16
2023-11-14T03:41:48.060Z,100207.50
2023-11-14T03:44:14.441Z,100213.47
2023-11-14T03:46:42.977Z,100212.41
2023-11-14T03:49:09.441Z,100215.47
2023-11-14T03:51:35.866Z,100225.72
2023-11-14T03:54:02.266Z,100224.13
2023-11-14T03:56:28.734Z,100222.94
2023-11-14T03:58:55.367Z,100241.16
2023-11-14T04:01:22.178Z,100241.94
2023-11-14T04:03:49.262Z,100232.41
2023-11-14T04:06:15.727Z,100240.81
2023-11-14T04:08:42.233Z,100242.34
2023-11-14T04:11:08.817Z,100241.94
2023-11-14T04:13:37.960Z,100246.91
2023-11-14T04:16:06.733Z,100250.78
2023-11-14T04:18:34.661Z,100240.22
2023-11-14T04:21:01.184Z,100245.44
2023-11-14T04:23:27.543Z,100243.06
2023-11-14T04:25:54.044Z,100235.31
2023-11-14T04:28:20.576Z,100238.28
2023-11-14T04:30:46.968Z,100241.41
2023-11-14T04:33:13.387Z,100245.00
2023-11-14T04:35:39.859Z,100236.34
2023-11-14T04:38:06.233Z,100246.66
2023-11-14T04:40:32.686Z,100247.88
2023-11-14T04:42:59.131Z,100256.31
2023-11-14T04:45:26.930Z,100251.81
2023-11-14T04:47:53.343Z,100243.16
2023-11-14T04:50:21.554Z,100240.50
2023-11-14T04:52:48.212Z,100232.94
2023-11-14T04:55:14.748Z,100230.63
2023-11-14T04:57:41.135Z,100236.31
2023-11-14T05:00:09.951Z,100232.50
2023-11-14T05:02:36.661Z,100250.38
2023-11-14T05:05:03.333Z,100251.94
2023-11-14T05:07:29.766Z,100232.16
2023-11-14T05:09:56.247Z,100263.81
2023-11-14T05:12:22.653Z,100264.91
2023-11-14T05:14:49.051Z,100252.69
2023-11-14T05:17:15.532Z,100268.69
2023-11-14T05:19:45.415Z,100269.91
2023-11-14T05:22:13.650Z,100275.91
2023-11-14T05:24:40.817Z,100262.16
2023-11-14T05:27:07.238Z,100272.38
2023-11-14T05:29:36.924Z,100270.81
2023-11-14T05:32:04.365Z,100270.81
2023-11-14T05:34:30.844Z,100256.72
2023-11-14T05:36:57.290Z,100259.41
2023-11-14T05:39:23.849Z,100254.06
2023-11-14T05:41:50.250Z,100261.63
2023-11-14T05:44:16.939Z,100270.41
2023-11-14T05:46:44.873Z,100264.72
2023-11-14T05:49:12.569Z,100265.50
2023-11-14T05:51:39.622Z,100264.72
2023-11-14T05:54:06.619Z,100268.94
2023-11-14T05:56:33.026Z,100275.38
2023-11-14T05:58:59.428Z,100286.44
2023-11-14T06:01:25.983Z,100278.81
2023-11-14T06:03:52.466Z,100284.47
2023-11-14T06:06:18.937Z,100280.28
2023-11-14T06:08:45.378Z,100287.03
2023-11-14T06:11:14.229Z,100292.72
2023-11-14T06:13:45.401Z,100289.69
2023-11-14T06:16:12.353Z,100298.81
2023-11-14T06:18:38.824Z,100304.13
2023-11-14T06:21:05.438Z,100311.34
2023-11-14T06:23:32.202Z,100315.56
2023-11-14T06:25:59.409Z,100315.56
2023-11-14T06:28:25.902Z,100320.88
2023-11-14T06:30:52.281Z,100325.78
2023-11-14T06:33:18.669Z,100325.69
2023-11-14T06:35:46.347Z,100313.84
2023-11-14T06:38:12.796Z,100319.03
2023-11-14T06:40:40.428Z,100318.28
2023-11-14T06:43:08.088Z,100317.50
2023-11-14T06:45:34.501Z,100317.38
2023-11-14T06:48:01.032Z,100330.38
2023-11-14T06:50:37.437Z,100317.72
2023-11-14T06:53:10.228Z,100326.84
2023-11-14T06:55:36.728Z,100328.28
2023-11-14T06:58:03.098Z,100327.84
2023-11-14T07:00:32.093Z,100321.75
2023-11-14T07:02:59.131Z,100339.16
2023-11-14T07:05:26.162Z,100322.75
2023-11-14T07:07:53.920Z,100318.66
2023-11-14T07:10:21.078Z,100327.50
2023-11-14T07:12:47.558Z,100341.59
2023-11-14T07:15:13.969Z,100346.91
2023-11-14T07:17:41.015Z,100364.00
2023-11-14T07:20:11.598Z,100355.94
2023-11-14T07:22:41.739Z,100351.69
2023-11-14T07:25:10.605Z,100352.03
2023-11-14T07:27:42.318Z,100345.81
2023-11-14T07:30:10.633Z,100344.28
2023-11-14T07:32:37.311Z,100339.72
2023-11-14T07:35:04.141Z,100345.03
2023-11-14T07:37:30.735Z,100347.41
2023-11-14T07:39:57.816Z,100346.59
2023-11-14T07:42:27.250Z,100348.06
2023-11-14T07:44:53.741Z,100340.41
2023-11-14T07:47:21.504Z,100334.63
2023-11-14T07:49:48.701Z,100340.72
2023-11-14T07:52:15.151Z,100342.28
2023-11-14T07:54:41.772Z,100342.72
2023-11-14T07:57:08.162Z,100340.19
2023-11-14T07:59:35.083Z,100329.53
2023-11-14T08:02:01.628Z,100340.50
2023-11-14T08:04:28.927Z,100340.19
2023-11-14T08:06:55.364Z,100335.63
2023-11-14T08:09:21.770Z,100341.38
2023-11-14T08:11:48.670Z,100334.16
2023-11-14T08:14:16.267Z,100336.06
2023-11-14T08:16:42.859Z,100343.28
2023-11-14T08:19:09.383Z,100337.50
2023-11-14T08:21:35.829Z,100350.06
2023-11-14T08:24:02.353Z,100347.06
2023-11-14T08:26:28.892Z,100342.16
2023-11-14T08:28:55.556Z,100344.81
2023-11-14T08:31:22.066Z,100352.03
2023-11-14T08:33:48.500Z,100344.81
2023-11-14T08:36:15.921Z,100349.78
2023-11-14T08:38:42.462Z,100343.38
2023-11-14T08:41:09.178Z,100328.50
2023-11-14T08:43:35.984Z,100348.25
2023-11-14T08:46:02.634Z,100349.03
2023-11-14T08:48:29.111Z,100344.25
2023-11-14T08:50:55.585Z,100338.03
2023-11-14T08:53:22.555Z,100335.13
2023-11-14T08:55:49.263Z,100337.88
2023-11-14T08:58:15.665Z,100353.03
2023-11-14T09:00:42.072Z,100353.44
2023-11-14T09:03:08.683Z,100352.41
2023-11-14T09:05:35.662Z,100348.56
2023-11-14T09:08:02.165Z,100349.13
2023-11-14T09:10:28.728Z,100358.41
2023-11-14T09:12:55.228Z,100358.94
2023-11-14T09:15:21.712Z,100350.94
2023-11-14T09:17:52.392Z,100363.84
2023-11-14T09:20:21.827Z,100350.78
2023-11-14T09:22:48.367Z,100364.97
2023-11-14T09:25:15.457Z,100364.72
2023-11-14T09:27:42.490Z,100363.78
2023-11-14T09:30:10.068Z,100367.72
2023-11-14T09:32:36.826Z,100367.41
2023-11-14T09:35:03.824Z,100373.16
2023-11-14T09:37:30.303Z,100375.56
2023-11-14T09:39:56.813Z,100379.69
2023-11-14T09:42:23.987Z,100382.94
2023-11-14T09:44:50.965Z,100377.44
2023-11-14T09:47:18.381Z,100391.66
2023-11-14T09:49:45.050Z,100385.81
2023-11-14T09:52:12.980Z,100383.91
2023-11-14T09:54:43.836Z,100384.09
2023-11-14T09:57:12.062Z,100390.47
2023-11-14T09:59:42.800Z,100399.00
2023-11-14T10:02:09.351Z,100392.53
2023-11-14T10:04:35.886Z,100394.94
2023-11-14T10:07:02.564Z,100399.75
2023-11-14T10:09:29.132Z,100383.75
2023-11-14T10:12:16.804Z,100380.13
2023-11-14T10:14:47.119Z,100391.75
2023-11-14T10:17:15.089Z,100392.44
2023-11-14T10:20:02.285Z,100392.00
2023-11-14T10:22:29.055Z,100387.53
2023-11-14T10:24:55.852Z,100386.69
2023-11-14T10:27:37.821Z,100388.72
2023-11-14T10:30:04.846Z,100385.47
2023-11-14T10:32:31.843Z,100397.25
2023-11-14T10:35:16.465Z,100384.25
2023-11-14T10:37:42.864Z,100389.94
2023-11-14T10:40:09.986Z,100394.50
2023-11-14T10:42:36.857Z,100395.03
2023-11-14T10:45:11.550Z,100380.31
2023-11-14T10:47:42.780Z,100383.41
2023-11-14T10:50:30.061Z,100381.59
2023-11-14T10:52:57.591Z,100371.19
2023-11-14T10:55:25.619Z,100369.03
2023-11-14T10:57:53.200Z,100367.97
2023-11-14T11:00:22.298Z,100366.16
2023-11-14T11:02:54.059Z,100360.53
2023-11-14T11:05:28.096Z,100361.75
2023-11-14T11:07:59.972Z,100356.59
2023-11-14T11:10:31.947Z,100361.50
2023-11-14T11:13:00.523Z,100352.63
2023-11-14T11:15:28.165Z,100354.88
2023-11-14T11:18:01.711Z,100347.97
2023-11-14T11:20:31.279Z,100352.22
2023-11-14T11:23:11.844Z,100337.38
2023-11-14T11:25:45.799Z,100337.03
2023-11-14T11:28:35.013Z,100339.69
2023-11-14T11:31:12.674Z,100336.25
2023-11-14T11:33:42.811Z,100332.38
2023-11-14T11:36:21.594Z,100346.88
2023-11-14T11:39:04.088Z,100333.53
2023-11-14T11:41:39.720Z,100327.41
2023-11-14T11:44:13.570Z,100323.94
2023-11-14T11:46:47.962Z,100319.41
2023-11-14T11:49:14.434Z,100322.47
2023-11-14T11:51:44.887Z,100328.59
2023-11-14T11:54:29.891Z,100323.94
2023-11-14T11:57:11.804Z,100317.41
2023-11-14T11:59:41.572Z,100316.63
2023-11-14T12:02:11.931Z,100305.97
2023-11-14T12:04:39.718Z,100309.03
2023-11-14T12:07:07.063Z,100314.06
2023-11-14T12:09:33.542Z,100312.50
2023-11-14T12:11:59.928Z,100304.91
2023-11-14T12:14:30.131Z,100302.56
2023-11-14T12:17:01.063Z,100298.03
2023-11-14T12:19:27.799Z,100291.13
2023-11-14T12:21:55.463Z,100291.91
2023-11-14T12:24:23.398Z,100284.59
2023-11-14T12:26:50.270Z,100283.84
2023-11-14T12:29:18.936Z,100291.84
2023-11-14T12:31:51.907Z,100278.84
2023-11-14T12:34:30.634Z,100271.94
2023-11-14T12:37:11.586Z,100254.38
2023-11-14T12:39:38.049Z,100257.41
2023-11-14T12:42:07.805Z,100253.97
2023-11-14T12:44:34.856Z,100257.31
2023-11-14T12:47:01.500Z,100247.00
2023-11-14T12:49:32.688Z,100248.91
2023-11-14T12:52:02.361Z,100247.34
2023-11-14T12:54:29.003Z,100250.34
2023-11-14T12:56:56.219Z,100252.97
2023-11-14T12:59:23.123Z,100256.31
2023-11-14T13:01:50.589Z,100249.03
2023-11-14T13:04:17.958Z,100253.16
2023-11-14T13:06:47.395Z,100254.63
2023-11-14T13:09:16.958Z,100251.09
2023-11-14T13:11:44.274Z,100252.59
2023-11-14T13:14:12.048Z,100247.50
2023-11-14T13:16:39.796Z,100240.53
2023-11-14T13:19:06.765Z,100255.44
2023-11-14T13:21:33.273Z,100240.03
2023-11-14T13:23:59.846Z,100246.81
2023-11-14T13:26:26.280Z,100250.19
2023-11-14T13:28:52.923Z,100247.13
2023-11-14T13:31:20.197Z,100241.78
2023-11-14T13:33:47.421Z,100247.78
2023-11-14T13:36:17.490Z,100242.38
2023-11-14T13:38:45.951Z,100249.19
2023-11-14T13:43:42.519Z,100233.03
2023-11-14T13:46:17.863Z,100242.81
2023-11-14T13:48:50.622Z,100236.97
2023-11-14T13:51:19.184Z,100239.13
2023-11-14T13:53:45.708Z,100227.25
2023-11-14T13:56:12.598Z,100235.59
2023-11-14T13:58:39.058Z,100229.84
2023-11-14T14:01:12.672Z,100232.06
2023-11-14T14:03:39.935Z,100234.31
2023-11-14T14:06:08.526Z,100219.78
2023-11-14T14:08:38.563Z,100218.91
2023-11-14T14:11:09.018Z,100211.59
2023-11-14T14:13:36.248Z,100213.06
2023-11-14T14:16:08.795Z,100203.44
2023-11-14T14:18:35.334Z,100213.22
2023-11-14T14:21:05.238Z,100210.50
2023-11-14T14:23:32.424Z,100197.84
2023-11-14T14:26:00.269Z,100197.38
2023-11-14T14:28:36.098Z,100201.84
2023-11-14T14:31:06.713Z,100191.88
2023-11-14T14:33:33.784Z,100189.91
2023-11-14T14:36:00.428Z,100188.25
2023-11-14T14:38:27.044Z,100182.06
2023-11-14T14:40:53.599Z,100176.19
2023-11-14T14:43:20.276Z,100171.56
2023-11-14T14:45:47.544Z,100168.81
2023-11-14T14:48:14.478Z,100158.50
2023-11-14T14:50:41.416Z,100160.28
2023-11-14T14:53:08.111Z,100152.56
2023-11-14T14:55:34.713Z,100147.94
2023-11-14T14:58:05.027Z,100145.94
2023-11-14T15:00:32.761Z,100139.75
2023-11-14T15:03:00.117Z,100139.66
2023-11-14T15:05:29.093Z,100148.00
2023-11-14T15:07:55.552Z,100148.31
2023-11-14T15:10:22.777Z,100140.25
2023-11-14T15:12:49.205Z,100137.13
2023-11-14T15:15:15.873Z,100138.59
2023-11-14T15:17:42.469Z,100138.94
2023-11-14T15:20:11.969Z,100124.06
2023-11-14T15:22:38.515Z,100126.66
2023-11-14T15:25:08.568Z,100125.44
2023-11-14T15:27:35.035Z,100118.56
2023-11-14T15:30:03.970Z,100129.13
2023-11-14T15:32:31.729Z,100124.06
2023-11-14T15:34:59.134Z,100134.22
2023-11-14T15:37:25.633Z,100135.69
2023-11-14T15:39:52.241Z,100129.94
2023-11-14T15:42:18.739Z,100134.81
2023-11-14T15:44:47.414Z,100137.06
2023-11-14T15:47:14.580Z,100146.03
2023-11-14T15:49:41.408Z,100143.25
2023-11-14T15:52:08.400Z,100142.06
2023-11-14T15:54:34.983Z,100142.72
2023-11-14T15:57:02.266Z,100148.72
2023-11-14T15:59:28.879Z,100146.72
2023-11-14T16:01:55.501Z,100142.88
2023-11-14T16:04:22.040Z,100148.06
2023-11-14T16:06:48.457Z,100138.13
2023-11-14T16:09:14.886Z,100136.91
2023-11-14T16:11:41.268Z,100136.91
2023-11-14T16:14:08.295Z,100142.09
2023-11-14T16:16:34.752Z,100146.66
2023-11-14T16:19:01.166Z,100128.72
2023-11-14T16:21:27.623Z,100145.78
2023-11-14T16:23:56.368Z,100141.91
2023-11-14T16:26:23.385Z,100140.69
2023-11-14T16:28:49.805Z,100142.91
2023-11-14T16:31:16.672Z,100149.31
2023-11-14T16:33:43.646Z,100141.69
2023-11-14T16:36:10.022Z,100152.31
2023-11-14T16:38:36.492Z,100140.50
2023-11-14T16:41:03.009Z,100142.69
2023-11-14T16:43:30.413Z,100140.03
2023-11-14T16:45:56.967Z,100146.03
2023-11-14T16:48:23.476Z,100139.16
2023-11-14T16:50:49.872Z,100145.56
2023-11-14T16:53:16.520Z,100139.81
2023-11-14T16:55:42.947Z,100140.44
2023-11-14T16:58:10.066Z,100132.03
2023-11-14T17:00:36.528Z,100145.66
2023-11-14T17:03:03.049Z,100140.66
2023-11-14T17:05:29.813Z,100136.47
2023-11-14T17:07:57.725Z,100141.69
2023-11-14T17:10:25.673Z,100149.31
2023-11-14T17:12:53.305Z,100138.69
2023-11-14T17:15:19.730Z,100146.66
2023-11-14T17:17:46.461Z,100139.03
2023-11-14T17:20:13.034Z,100143.25
2023-11-14T17:22:39.626Z,100136.03
2023-11-14T17:25:06.693Z,100139.81
2023-11-14T17:27:33.106Z,100138.25
2023-11-14T17:29:59.594Z,100147.66
2023-11-14T17:32:27.411Z,100141.22
2023-11-14T17:34:54.851Z,100147.66
2023-11-14T17:37:22.216Z,100146.88
2023-11-14T17:39:48.628Z,100145.34
2023-11-14T17:42:15.047Z,100149.88
2023-11-14T17:44:41.567Z,100150.66
2023-11-14T17:47:10.866Z,100164.38
2023-11-14T17:49:40.632Z,100159.50
2023-11-14T17:52:07.245Z,100160.59
2023-11-14T17:54:34.337Z,100170.56
2023-11-14T17:57:00.996Z,100167.91
2023-11-14T17:59:27.510Z,100169.47
2023-11-14T18:01:54.197Z,100166.81
2023-11-14T18:04:20.862Z,100173.66
2023-11-14T18:06:48.981Z,100181.31
2023-11-14T18:09:16.141Z,100174.13
2023-11-14T18:11:42.541Z,100176.00
2023-11-14T18:14:09.112Z,100193.50
2023-11-14T18:16:35.996Z,100188.97
2023-11-14T18:19:02.578Z,100198.03
2023-11-14T18:21:29.030Z,100194.28
2023-11-14T18:23:55.443Z,100207.22
2023-11-14T18:26:24.821Z,100214.41
2023-11-14T18:28:51.356Z,100217.06
2023-11-14T18:31:17.892Z,100213.31
2023-11-14T18:33:44.613Z,100215.97
2023-11-14T18:36:11.256Z,100232.38
2023-11-14T18:38:40.241Z,100242.19
2023-11-14T18:41:06.868Z,100233.16
2023-11-14T18:43:33.350Z,100233.16
2023-11-14T18:46:00.478Z,100246.44
2023-11-14T18:48:26.941Z,100247.50
2023-11-14T18:50:53.890Z,100243.00
2023-11-14T18:53:22.001Z,100248.31
2023-11-14T18:55:49.071Z,100245.97
2023-11-14T18:58:18.750Z,100257.38
2023-11-14T19:00:46.038Z,100266.91
2023-11-14T19:03:12.742Z,100271.13
2023-11-14T19:05:39.400Z,100279.41
2023-11-14T19:08:05.888Z,100281.75
2023-11-14T19:10:32.315Z,100280.97
2023-11-14T19:12:58.729Z,100278.31
2023-11-14T19:15:25.214Z,100284.72
2023-11-14T19:17:52.275Z,100295.34
2023-11-14T19:20:18.852Z,100296.16
2023-11-14T19:23:36.158Z,100307.25
2023-11-14T19:25:31.942Z,100316.75
2023-11-14T19:27:58.384Z,100316.00
2023-11-14T19:30:24.859Z,100320.97
2023-11-14T19:32:51.351Z,100343.78
2023-11-14T19:35:17.950Z,100335.03
2023-11-14T19:37:44.429Z,100342.69
2023-11-14T19:40:12.545Z,100339.69
2023-11-14T19:42:39.808Z,100340.81
2023-11-14T19:45:06.551Z,100353.31
2023-11-14T19:47:33.993Z,100361.28
2023-11-14T19:50:01.464Z,100375.34
2023-11-14T19:52:28.519Z,100379.91
2023-11-14T19:54:55.032Z,100377.25
2023-11-14T19:57:23.587Z,100390.53
2023-11-14T19:59:50.048Z,100398.03
2023-11-14T20:02:16.570Z,100398.81
2023-11-14T20:04:44.537Z,100411.78
2023-11-14T20:07:11.005Z,100410.69
2023-11-14T20:09:37.435Z,100416.00
2023-11-14T20:12:04.418Z,100418.66
2023-11-14T20:14:30.928Z,100427.75
2023-11-14T20:16:57.529Z,100425.09
2023-11-14T20:19:23.913Z,100434.13
2023-11-14T20:21:50.286Z,100435.25
2023-11-14T20:24:17.256Z,100435.25
2023-11-14T20:26:43.975Z,100444.00
2023-11-14T20:29:10.744Z,100450.41
2023-11-14T20:31:37.475Z,100454.19
2023-11-14T20:34:04.316Z,100454.19
2023-11-14T20:36:31.826Z,100469.34
2023-11-14T20:38:59.547Z,100476.22
2023-11-14T20:41:26.615Z,100482.31
2023-11-14T20:43:53.139Z,100477.75
2023-11-14T20:46:19.599Z,100488.41
2023-11-14T20:48:46.186Z,100493.72
2023-11-14T20:51:21.752Z,100484.63
2023-11-14T20:53:53.556Z,100479.31
2023-11-14T20:56:24.513Z,100489.94
2023-11-14T20:58:50.987Z,100491.81
2023-11-14T21:01:17.458Z,100496.69
2023-11-14T21:03:43.919Z,100516.72
2023-11-14T21:06:10.502Z,100515.47
2023-11-14T21:08:36.947Z,100517.97
2023-11-14T21:11:03.650Z,100532.56
2023-11-14T21:13:30.098Z,100537.44
2023-11-14T21:15:56.511Z,100546.63
2023-11-14T21:18:24.321Z,100541.00
2023-11-14T21:20:50.935Z,100550.09
2023-11-14T21:23:17.595Z,100558.69
2023-11-14T21:25:44.298Z,100557.13
2023-11-14T21:28:10.828Z,100561.34
2023-11-14T21:30:37.497Z,100574.63
2023-11-14T21:33:04.383Z,100566.66
2023-11-14T21:35:31.005Z,100575.06
2023-11-14T21:37:57.453Z,100579.31
2023-11-14T21:40:24.578Z,100585.84
2023-11-14T21:42:51.157Z,100591.59
2023-11-14T21:45:18.490Z,100600.34
2023-11-14T21:47:45.105Z,100598.19
2023-11-14T21:50:12.746Z,100598.94
2023-11-14T21:52:39.192Z,100606.16
2023-11-14T21:55:06.196Z,100610.34
2023-11-14T21:57:32.594Z,100616.91
2023-11-14T21:59:59.505Z,100623.31
2023-11-14T22:02:26.453Z,100630.06
2023-11-14T22:04:53.713Z,100627.75
2023-11-14T22:07:20.198Z,100625.38
2023-11-14T22:09:46.600Z,100634.31
2023-11-14T22:12:12.980Z,100643.25
2023-11-14T22:14:39.712Z,100647.66
2023-11-14T22:17:06.907Z,100652.03
2023-11-14T22:19:33.293Z,100657.34
2023-11-14T22:22:00.261Z,100661.44
2023-11-14T22:24:27.507Z,100660.31
2023-11-14T22:26:57.464Z,100664.09
2023-11-14T22:29:24.382Z,100672.50
2023-11-14T22:31:51.812Z,100671.72
2023-11-14T22:34:18.610Z,100677.03
2023-11-14T22:36:45.069Z,100685.00
2023-11-14T22:39:11.461Z,100691.44
2023-11-14T22:41:37.908Z,100696.59
2023-11-14T22:44:04.589Z,100695.34
2023-11-14T22:46:31.197Z,100705.97
2023-11-14T22:48:57.625Z,100706.44
2023-11-14T22:51:24.420Z,100719.38
2023-11-14T22:53:51.113Z,100719.38
2023-11-14T22:56:21.537Z,100725.81
2023-11-14T22:58:48.006Z,100739.88
2023-11-14T23:01:15.399Z,100745.19
2023-11-14T23:03:47.762Z,100751.28
2023-11-14T23:06:21.300Z,100755.50
2023-11-14T23:08:50.024Z,100768.78
2023-11-14T23:11:21.160Z,100766.59
2023-11-14T23:13:47.752Z,100768.78
2023-11-14T23:16:14.281Z,100771.13
2023-11-14T23:18:40.701Z,100770.03
2023-11-14T23:21:11.695Z,100769.69
2023-11-14T23:23:38.735Z,100780.31
2023-11-14T23:26:05.382Z,100770.34
2023-11-14T23:28:31.912Z,100782.22
2023-11-14T23:30:59.488Z,100775.00
2023-11-14T23:33:26.013Z,100786.41
2023-11-14T23:35:52.443Z,100793.31
2023-11-14T23:38:18.938Z,100801.28
2023-11-14T23:40:45.525Z,100810.31
2023-11-14T23:43:12.598Z,100820.19
2023-11-14T23:45:40.690Z,100823.59
2023-11-14T23:48:08.367Z,100815.34
2023-11-14T23:50:35.907Z,100827.84
2023-11-14T23:53:02.749Z,100827.38
2023-11-14T23:55:29.129Z,100835.00
2023-11-14T23:57:55.658Z,100838.78
